sensor_id;sensor_type;location;lat;lon;timestamp;temperature;humidity
37086;DHT22;23001;45.952;12.676;2022-12-29T00:00:41;7.20;99.90
37086;DHT22;23001;45.952;12.676;2022-12-29T00:06:23;7.20;99.90
37086;DHT22;23001;45.952;12.676;2022-12-29T00:09:32;7.30;99.90
37086;DHT22;23001;45.952;12.676;2022-12-29T00:12:28;7.40;99.90
37086;DHT22;23001;45.952;12.676;2022-12-29T00:18:35;7.20;99.90
37086;DHT22;23001;45.952;12.676;2022-12-29T00:21:40;7.20;99.90
37086;DHT22;23001;45.952;12.676;2022-12-29T00:30:50;7.00;99.90
37086;DHT22;23001;45.952;12.676;2022-12-29T00:37:25;7.10;99.90
37086;DHT22;23001;45.952;12.676;2022-12-29T00:40:56;7.20;99.90
37086;DHT22;23001;45.952;12.676;2022-12-29T00:47:29;7.40;99.90
37086;DHT22;23001;45.952;12.676;2022-12-29T00:50:38;7.30;99.90
37086;DHT22;23001;45.952;12.676;2022-12-29T00:57:01;7.20;99.90
37086;DHT22;23001;45.952;12.676;2022-12-29T00:59:49;7.20;99.90
37086;DHT22;23001;45.952;12.676;2022-12-29T01:02:49;7.10;99.90
37086;DHT22;23001;45.952;12.676;2022-12-29T01:06:32;7.10;99.90
37086;DHT22;23001;45.952;12.676;2022-12-29T01:08:51;7.10;99.90
37086;DHT22;23001;45.952;12.676;2022-12-29T01:11:42;7.00;99.90
37086;DHT22;23001;45.952;12.676;2022-12-29T01:14:28;7.10;99.90
37086;DHT22;23001;45.952;12.676;2022-12-29T01:17:09;7.00;99.90
37086;DHT22;23001;45.952;12.676;2022-12-29T01:20:07;7.00;99.90
37086;DHT22;23001;45.952;12.676;2022-12-29T01:23:14;7.00;99.90
37086;DHT22;23001;45.952;12.676;2022-12-29T01:26:25;7.00;99.90
37086;DHT22;23001;45.952;12.676;2022-12-29T01:48:00;6.60;99.90
37086;DHT22;23001;45.952;12.676;2022-12-29T01:51:20;6.60;99.90
37086;DHT22;23001;45.952;12.676;2022-12-29T02:01:45;6.60;99.90
37086;DHT22;23001;45.952;12.676;2022-12-29T02:05:01;6.80;99.90
37086;DHT22;23001;45.952;12.676;2022-12-29T02:08:19;6.60;99.90
37086;DHT22;23001;45.952;12.676;2022-12-29T02:11:28;6.40;99.90
37086;DHT22;23001;45.952;12.676;2022-12-29T02:14:41;6.30;99.90
37086;DHT22;23001;45.952;12.676;2022-12-29T02:29:56;6.20;99.90
37086;DHT22;23001;45.952;12.676;2022-12-29T02:39:12;6.10;99.90
37086;DHT22;23001;45.952;12.676;2022-12-29T02:44:47;6.40;99.90
37086;DHT22;23001;45.952;12.676;2022-12-29T02:47:36;6.40;99.90
37086;DHT22;23001;45.952;12.676;2022-12-29T02:53:36;6.60;99.90
37086;DHT22;23001;45.952;12.676;2022-12-29T02:56:25;6.60;99.90
37086;DHT22;23001;45.952;12.676;2022-12-29T03:05:22;6.50;99.90
37086;DHT22;23001;45.952;12.676;2022-12-29T03:15:00;6.60;99.90
37086;DHT22;23001;45.952;12.676;2022-12-29T03:18:12;6.50;99.90
37086;DHT22;23001;45.952;12.676;2022-12-29T03:21:06;6.40;99.90
37086;DHT22;23001;45.952;12.676;2022-12-29T03:23:48;6.40;99.90
37086;DHT22;23001;45.952;12.676;2022-12-29T03:26:24;6.40;99.90
37086;DHT22;23001;45.952;12.676;2022-12-29T03:29:09;6.40;99.90
37086;DHT22;23001;45.952;12.676;2022-12-29T03:31:45;6.40;99.90
37086;DHT22;23001;45.952;12.676;2022-12-29T03:34:25;6.30;99.90
37086;DHT22;23001;45.952;12.676;2022-12-29T03:37:13;6.20;99.90
37086;DHT22;23001;45.952;12.676;2022-12-29T03:42:56;5.90;99.90
37086;DHT22;23001;45.952;12.676;2022-12-29T03:45:37;5.80;99.90
37086;DHT22;23001;45.952;12.676;2022-12-29T03:48:26;5.90;99.90
37086;DHT22;23001;45.952;12.676;2022-12-29T03:51:04;6.00;99.90
37086;DHT22;23001;45.952;12.676;2022-12-29T03:53:39;6.00;99.90
37086;DHT22;23001;45.952;12.676;2022-12-29T03:56:13;5.90;99.90
37086;DHT22;23001;45.952;12.676;2022-12-29T03:58:54;5.90;99.90
37086;DHT22;23001;45.952;12.676;2022-12-29T04:01:29;5.90;99.90
37086;DHT22;23001;45.952;12.676;2022-12-29T04:04:10;5.80;99.90
37086;DHT22;23001;45.952;12.676;2022-12-29T04:07:16;5.80;99.90
37086;DHT22;23001;45.952;12.676;2022-12-29T04:09:45;5.80;99.90
37086;DHT22;23001;45.952;12.676;2022-12-29T04:12:29;6.00;99.90
37086;DHT22;23001;45.952;12.676;2022-12-29T04:15:25;6.00;99.90
37086;DHT22;23001;45.952;12.676;2022-12-29T04:18:26;5.80;99.90
37086;DHT22;23001;45.952;12.676;2022-12-29T04:20:58;5.80;99.90
37086;DHT22;23001;45.952;12.676;2022-12-29T04:23:49;5.80;99.90
37086;DHT22;23001;45.952;12.676;2022-12-29T04:26:27;5.80;99.90
37086;DHT22;23001;45.952;12.676;2022-12-29T04:29:00;5.90;99.90
37086;DHT22;23001;45.952;12.676;2022-12-29T04:31:35;6.00;99.90
37086;DHT22;23001;45.952;12.676;2022-12-29T04:37:12;6.00;99.90
37086;DHT22;23001;45.952;12.676;2022-12-29T04:40:03;6.20;99.90
37086;DHT22;23001;45.952;12.676;2022-12-29T04:42:55;6.40;99.90
37086;DHT22;23001;45.952;12.676;2022-12-29T04:45:49;6.50;99.90
37086;DHT22;23001;45.952;12.676;2022-12-29T04:48:47;6.50;99.90
37086;DHT22;23001;45.952;12.676;2022-12-29T04:51:51;6.40;99.90
37086;DHT22;23001;45.952;12.676;2022-12-29T04:54:50;6.40;99.90
37086;DHT22;23001;45.952;12.676;2022-12-29T04:57:39;6.40;99.90
37086;DHT22;23001;45.952;12.676;2022-12-29T05:03:28;6.20;99.90
37086;DHT22;23001;45.952;12.676;2022-12-29T05:06:17;6.10;99.90
37086;DHT22;23001;45.952;12.676;2022-12-29T05:13:31;6.10;99.90
37086;DHT22;23001;45.952;12.676;2022-12-29T05:19:18;6.10;99.90
37086;DHT22;23001;45.952;12.676;2022-12-29T05:32:22;6.20;99.90
37086;DHT22;23001;45.952;12.676;2022-12-29T05:35:45;6.20;99.90
37086;DHT22;23001;45.952;12.676;2022-12-29T05:42:44;6.20;99.90
37086;DHT22;23001;45.952;12.676;2022-12-29T05:49:05;6.30;99.90
37086;DHT22;23001;45.952;12.676;2022-12-29T06:06:43;6.50;99.90
37086;DHT22;23001;45.952;12.676;2022-12-29T06:09:53;6.60;99.90
37086;DHT22;23001;45.952;12.676;2022-12-29T06:12:56;6.60;99.90
37086;DHT22;23001;45.952;12.676;2022-12-29T06:15:52;6.60;99.90
37086;DHT22;23001;45.952;12.676;2022-12-29T06:18:17;6.60;99.90
37086;DHT22;23001;45.952;12.676;2022-12-29T06:20:46;6.50;99.90
37086;DHT22;23001;45.952;12.676;2022-12-29T06:23:12;6.50;99.90
37086;DHT22;23001;45.952;12.676;2022-12-29T06:25:39;6.50;99.90
37086;DHT22;23001;45.952;12.676;2022-12-29T06:28:09;6.60;99.90
37086;DHT22;23001;45.952;12.676;2022-12-29T06:30:36;6.70;99.90
37086;DHT22;23001;45.952;12.676;2022-12-29T06:33:02;6.80;99.90
37086;DHT22;23001;45.952;12.676;2022-12-29T06:35:28;6.90;99.90
37086;DHT22;23001;45.952;12.676;2022-12-29T06:37:53;6.90;99.90
37086;DHT22;23001;45.952;12.676;2022-12-29T06:40:19;6.80;99.90
37086;DHT22;23001;45.952;12.676;2022-12-29T06:42:45;6.80;99.90
37086;DHT22;23001;45.952;12.676;2022-12-29T06:45:11;6.70;99.90
37086;DHT22;23001;45.952;12.676;2022-12-29T06:47:36;6.60;99.90
37086;DHT22;23001;45.952;12.676;2022-12-29T06:50:02;6.60;99.90
37086;DHT22;23001;45.952;12.676;2022-12-29T06:52:56;6.60;99.90
37086;DHT22;23001;45.952;12.676;2022-12-29T06:55:45;6.60;99.90
37086;DHT22;23001;45.952;12.676;2022-12-29T06:58:16;6.60;99.90
37086;DHT22;23001;45.952;12.676;2022-12-29T07:00:48;6.70;99.90
37086;DHT22;23001;45.952;12.676;2022-12-29T07:03:14;6.80;99.90
37086;DHT22;23001;45.952;12.676;2022-12-29T07:05:42;6.80;99.90
37086;DHT22;23001;45.952;12.676;2022-12-29T07:08:08;6.90;99.90
37086;DHT22;23001;45.952;12.676;2022-12-29T07:10:34;6.80;99.90
37086;DHT22;23001;45.952;12.676;2022-12-29T07:16:22;6.70;99.90
37086;DHT22;23001;45.952;12.676;2022-12-29T07:18:48;6.60;99.90
37086;DHT22;23001;45.952;12.676;2022-12-29T07:21:14;6.60;99.90
37086;DHT22;23001;45.952;12.676;2022-12-29T07:23:39;6.70;99.90
37086;DHT22;23001;45.952;12.676;2022-12-29T07:26:07;6.70;99.90
37086;DHT22;23001;45.952;12.676;2022-12-29T07:28:35;6.80;99.90
37086;DHT22;23001;45.952;12.676;2022-12-29T07:31:01;6.80;99.90
37086;DHT22;23001;45.952;12.676;2022-12-29T07:33:31;6.70;99.90
37086;DHT22;23001;45.952;12.676;2022-12-29T07:35:57;6.60;99.90
37086;DHT22;23001;45.952;12.676;2022-12-29T07:38:22;6.60;99.90
37086;DHT22;23001;45.952;12.676;2022-12-29T07:40:48;6.70;99.90
37086;DHT22;23001;45.952;12.676;2022-12-29T07:43:14;6.70;99.90
37086;DHT22;23001;45.952;12.676;2022-12-29T07:45:40;6.70;99.90
37086;DHT22;23001;45.952;12.676;2022-12-29T07:48:06;6.70;99.90
37086;DHT22;23001;45.952;12.676;2022-12-29T07:50:37;6.70;99.90
37086;DHT22;23001;45.952;12.676;2022-12-29T07:53:03;6.50;99.90
37086;DHT22;23001;45.952;12.676;2022-12-29T07:55:29;6.60;99.90
37086;DHT22;23001;45.952;12.676;2022-12-29T07:57:56;6.60;99.90
37086;DHT22;23001;45.952;12.676;2022-12-29T08:00:33;6.60;99.90
37086;DHT22;23001;45.952;12.676;2022-12-29T08:02:59;6.60;99.90
37086;DHT22;23001;45.952;12.676;2022-12-29T08:05:24;6.70;99.90
37086;DHT22;23001;45.952;12.676;2022-12-29T08:07:53;6.80;99.90
37086;DHT22;23001;45.952;12.676;2022-12-29T08:10:21;6.80;99.90
37086;DHT22;23001;45.952;12.676;2022-12-29T08:19:22;7.30;99.90
37086;DHT22;23001;45.952;12.676;2022-12-29T08:22:15;7.40;99.90
37086;DHT22;23001;45.952;12.676;2022-12-29T08:24:40;7.50;99.90
37086;DHT22;23001;45.952;12.676;2022-12-29T08:27:15;7.50;99.90
37086;DHT22;23001;45.952;12.676;2022-12-29T08:29:53;7.50;99.90
37086;DHT22;23001;45.952;12.676;2022-12-29T08:32:22;7.50;99.90
37086;DHT22;23001;45.952;12.676;2022-12-29T08:34:47;7.60;99.90
37086;DHT22;23001;45.952;12.676;2022-12-29T08:37:16;7.60;99.90
37086;DHT22;23001;45.952;12.676;2022-12-29T08:39:42;7.60;99.90
37086;DHT22;23001;45.952;12.676;2022-12-29T08:42:11;7.70;99.90
37086;DHT22;23001;45.952;12.676;2022-12-29T08:44:42;7.80;99.90
37086;DHT22;23001;45.952;12.676;2022-12-29T08:47:11;7.80;99.90
37086;DHT22;23001;45.952;12.676;2022-12-29T08:50:08;7.80;99.90
37086;DHT22;23001;45.952;12.676;2022-12-29T08:58:49;8.20;99.90
37086;DHT22;23001;45.952;12.676;2022-12-29T09:04:41;8.40;99.90
37086;DHT22;23001;45.952;12.676;2022-12-29T09:07:07;8.50;99.90
37086;DHT22;23001;45.952;12.676;2022-12-29T09:09:37;8.50;99.90
37086;DHT22;23001;45.952;12.676;2022-12-29T09:12:02;8.60;99.90
37086;DHT22;23001;45.952;12.676;2022-12-29T09:14:32;8.60;99.90
37086;DHT22;23001;45.952;12.676;2022-12-29T09:17:04;8.70;99.90
37086;DHT22;23001;45.952;12.676;2022-12-29T09:20:18;8.70;99.90
37086;DHT22;23001;45.952;12.676;2022-12-29T09:26:35;8.90;99.90
37086;DHT22;23001;45.952;12.676;2022-12-29T09:29:01;9.00;99.90
37086;DHT22;23001;45.952;12.676;2022-12-29T09:31:27;9.10;99.90
37086;DHT22;23001;45.952;12.676;2022-12-29T09:33:55;9.10;99.90
37086;DHT22;23001;45.952;12.676;2022-12-29T09:36:33;9.20;99.90
37086;DHT22;23001;45.952;12.676;2022-12-29T09:50:56;9.40;99.90
37086;DHT22;23001;45.952;12.676;2022-12-29T09:53:36;9.60;99.90
37086;DHT22;23001;45.952;12.676;2022-12-29T09:56:19;9.60;99.90
37086;DHT22;23001;45.952;12.676;2022-12-29T09:59:11;9.70;99.90
37086;DHT22;23001;45.952;12.676;2022-12-29T10:08:26;10.10;99.90
37086;DHT22;23001;45.952;12.676;2022-12-29T10:10:57;10.10;99.90
37086;DHT22;23001;45.952;12.676;2022-12-29T10:18:17;10.30;99.90
37086;DHT22;23001;45.952;12.676;2022-12-29T10:26:17;10.10;99.90
37086;DHT22;23001;45.952;12.676;2022-12-29T10:32:38;10.00;99.90
37086;DHT22;23001;45.952;12.676;2022-12-29T10:39:16;9.80;99.90
37086;DHT22;23001;45.952;12.676;2022-12-29T10:42:15;9.90;99.90
37086;DHT22;23001;45.952;12.676;2022-12-29T10:44:44;10.00;99.90
37086;DHT22;23001;45.952;12.676;2022-12-29T10:47:32;10.00;99.90
37086;DHT22;23001;45.952;12.676;2022-12-29T10:50:00;10.10;99.90
37086;DHT22;23001;45.952;12.676;2022-12-29T10:52:30;10.10;99.90
37086;DHT22;23001;45.952;12.676;2022-12-29T10:58:06;10.20;99.90
37086;DHT22;23001;45.952;12.676;2022-12-29T11:00:32;10.20;99.90
37086;DHT22;23001;45.952;12.676;2022-12-29T11:17:15;10.40;99.90
37086;DHT22;23001;45.952;12.676;2022-12-29T11:19:52;10.30;99.90
37086;DHT22;23001;45.952;12.676;2022-12-29T11:22:26;10.30;99.90
37086;DHT22;23001;45.952;12.676;2022-12-29T11:25:07;10.30;99.90
37086;DHT22;23001;45.952;12.676;2022-12-29T11:27:39;10.40;99.90
37086;DHT22;23001;45.952;12.676;2022-12-29T11:30:34;10.40;99.90
37086;DHT22;23001;45.952;12.676;2022-12-29T11:33:20;10.40;99.90
37086;DHT22;23001;45.952;12.676;2022-12-29T11:38:46;10.40;99.90
37086;DHT22;23001;45.952;12.676;2022-12-29T11:41:25;10.40;99.90
37086;DHT22;23001;45.952;12.676;2022-12-29T11:53:32;10.50;99.90
37086;DHT22;23001;45.952;12.676;2022-12-29T12:06:35;10.50;99.90
37086;DHT22;23001;45.952;12.676;2022-12-29T12:09:10;10.50;99.90
37086;DHT22;23001;45.952;12.676;2022-12-29T12:11:43;10.60;99.90
37086;DHT22;23001;45.952;12.676;2022-12-29T12:17:43;10.50;99.90
37086;DHT22;23001;45.952;12.676;2022-12-29T12:26:59;10.40;99.90
37086;DHT22;23001;45.952;12.676;2022-12-29T12:34:43;10.50;99.90
37086;DHT22;23001;45.952;12.676;2022-12-29T12:57:02;10.50;99.90
37086;DHT22;23001;45.952;12.676;2022-12-29T12:59:37;10.50;99.90
37086;DHT22;23001;45.952;12.676;2022-12-29T13:02:21;10.50;99.90
37086;DHT22;23001;45.952;12.676;2022-12-29T14:15:25;10.40;99.90
37086;DHT22;23001;45.952;12.676;2022-12-29T15:06:10;10.10;99.90
37086;DHT22;23001;45.952;12.676;2022-12-29T15:08:53;10.10;99.90
37086;DHT22;23001;45.952;12.676;2022-12-29T15:18:25;10.00;99.90
37086;DHT22;23001;45.952;12.676;2022-12-29T15:21:11;10.00;99.90
37086;DHT22;23001;45.952;12.676;2022-12-29T15:23:39;10.00;99.90
37086;DHT22;23001;45.952;12.676;2022-12-29T15:26:11;9.90;99.90
37086;DHT22;23001;45.952;12.676;2022-12-29T15:28:58;9.90;99.90
37086;DHT22;23001;45.952;12.676;2022-12-29T15:32:02;10.00;99.90
37086;DHT22;23001;45.952;12.676;2022-12-29T15:34:29;9.90;99.90
37086;DHT22;23001;45.952;12.676;2022-12-29T15:36:56;9.90;99.90
37086;DHT22;23001;45.952;12.676;2022-12-29T15:39:30;9.90;99.90
37086;DHT22;23001;45.952;12.676;2022-12-29T15:44:44;9.90;99.90
37086;DHT22;23001;45.952;12.676;2022-12-29T15:47:45;9.90;99.90
37086;DHT22;23001;45.952;12.676;2022-12-29T15:50:27;9.90;99.90
37086;DHT22;23001;45.952;12.676;2022-12-29T16:00:18;9.80;99.90
37086;DHT22;23001;45.952;12.676;2022-12-29T16:02:52;9.80;99.90
37086;DHT22;23001;45.952;12.676;2022-12-29T16:05:18;9.80;99.90
37086;DHT22;23001;45.952;12.676;2022-12-29T16:07:55;9.80;99.90
37086;DHT22;23001;45.952;12.676;2022-12-29T16:10:30;9.80;99.90
37086;DHT22;23001;45.952;12.676;2022-12-29T16:13:04;9.90;99.90
37086;DHT22;23001;45.952;12.676;2022-12-29T16:15:31;9.90;99.90
37086;DHT22;23001;45.952;12.676;2022-12-29T16:17:57;9.80;99.90
37086;DHT22;23001;45.952;12.676;2022-12-29T16:20:25;9.80;99.90
37086;DHT22;23001;45.952;12.676;2022-12-29T16:22:58;9.70;99.90
37086;DHT22;23001;45.952;12.676;2022-12-29T16:27:51;9.80;99.90
37086;DHT22;23001;45.952;12.676;2022-12-29T16:32:55;9.90;99.90
37086;DHT22;23001;45.952;12.676;2022-12-29T16:35:26;9.90;99.90
37086;DHT22;23001;45.952;12.676;2022-12-29T16:38:18;9.90;99.90
37086;DHT22;23001;45.952;12.676;2022-12-29T16:43:25;9.90;99.90
37086;DHT22;23001;45.952;12.676;2022-12-29T17:03:33;9.80;99.90
37086;DHT22;23001;45.952;12.676;2022-12-29T17:05:59;9.70;99.90
37086;DHT22;23001;45.952;12.676;2022-12-29T17:08:25;9.70;99.90
37086;DHT22;23001;45.952;12.676;2022-12-29T17:10:57;9.70;99.90
37086;DHT22;23001;45.952;12.676;2022-12-29T17:13:42;9.70;99.90
37086;DHT22;23001;45.952;12.676;2022-12-29T17:16:10;9.80;99.90
37086;DHT22;23001;45.952;12.676;2022-12-29T17:21:29;9.80;99.90
37086;DHT22;23001;45.952;12.676;2022-12-29T17:31:01;9.70;99.90
37086;DHT22;23001;45.952;12.676;2022-12-29T17:33:38;9.70;99.90
37086;DHT22;23001;45.952;12.676;2022-12-29T17:36:10;9.70;99.90
37086;DHT22;23001;45.952;12.676;2022-12-29T17:38:36;9.70;99.90
37086;DHT22;23001;45.952;12.676;2022-12-29T17:41:11;9.80;99.90
37086;DHT22;23001;45.952;12.676;2022-12-29T17:43:39;9.80;99.90
37086;DHT22;23001;45.952;12.676;2022-12-29T17:46:06;9.80;99.90
37086;DHT22;23001;45.952;12.676;2022-12-29T17:48:38;9.80;99.90
37086;DHT22;23001;45.952;12.676;2022-12-29T17:51:04;9.80;99.90
37086;DHT22;23001;45.952;12.676;2022-12-29T17:53:30;9.80;99.90
37086;DHT22;23001;45.952;12.676;2022-12-29T17:55:56;9.70;99.90
37086;DHT22;23001;45.952;12.676;2022-12-29T17:58:35;9.60;99.90
37086;DHT22;23001;45.952;12.676;2022-12-29T18:01:04;9.60;99.90
37086;DHT22;23001;45.952;12.676;2022-12-29T18:03:37;9.70;99.90
37086;DHT22;23001;45.952;12.676;2022-12-29T18:06:06;9.70;99.90
37086;DHT22;23001;45.952;12.676;2022-12-29T18:08:39;9.70;99.90
37086;DHT22;23001;45.952;12.676;2022-12-29T18:11:20;9.70;99.90
37086;DHT22;23001;45.952;12.676;2022-12-29T18:13:47;9.70;99.90
37086;DHT22;23001;45.952;12.676;2022-12-29T18:16:26;9.70;99.90
37086;DHT22;23001;45.952;12.676;2022-12-29T18:19:10;9.70;99.90
37086;DHT22;23001;45.952;12.676;2022-12-29T18:21:43;9.70;99.90
37086;DHT22;23001;45.952;12.676;2022-12-29T18:24:13;9.70;99.90
37086;DHT22;23001;45.952;12.676;2022-12-29T18:26:39;9.70;99.90
37086;DHT22;23001;45.952;12.676;2022-12-29T18:29:05;9.70;99.90
37086;DHT22;23001;45.952;12.676;2022-12-29T18:31:33;9.70;99.90
37086;DHT22;23001;45.952;12.676;2022-12-29T18:34:05;9.70;99.90
37086;DHT22;23001;45.952;12.676;2022-12-29T18:39:50;9.60;99.90
37086;DHT22;23001;45.952;12.676;2022-12-29T18:42:16;9.70;99.90
37086;DHT22;23001;45.952;12.676;2022-12-29T18:44:45;9.70;99.90
37086;DHT22;23001;45.952;12.676;2022-12-29T18:47:11;9.70;99.90
37086;DHT22;23001;45.952;12.676;2022-12-29T18:49:37;9.70;99.90
37086;DHT22;23001;45.952;12.676;2022-12-29T18:52:03;9.70;99.90
37086;DHT22;23001;45.952;12.676;2022-12-29T18:54:44;9.70;99.90
37086;DHT22;23001;45.952;12.676;2022-12-29T18:57:09;9.70;99.90
37086;DHT22;23001;45.952;12.676;2022-12-29T18:59:35;9.70;99.90
37086;DHT22;23001;45.952;12.676;2022-12-29T19:02:01;9.70;99.90
37086;DHT22;23001;45.952;12.676;2022-12-29T19:04:27;9.60;99.90
37086;DHT22;23001;45.952;12.676;2022-12-29T19:06:52;9.60;99.90
37086;DHT22;23001;45.952;12.676;2022-12-29T19:09:18;9.60;99.90
37086;DHT22;23001;45.952;12.676;2022-12-29T19:11:44;9.50;99.90
37086;DHT22;23001;45.952;12.676;2022-12-29T19:14:14;9.50;99.90
37086;DHT22;23001;45.952;12.676;2022-12-29T19:16:41;9.50;99.90
37086;DHT22;23001;45.952;12.676;2022-12-29T19:19:12;9.50;99.90
37086;DHT22;23001;45.952;12.676;2022-12-29T19:21:38;9.50;99.90
37086;DHT22;23001;45.952;12.676;2022-12-29T19:24:04;9.40;99.90
37086;DHT22;23001;45.952;12.676;2022-12-29T19:26:32;9.40;99.90
37086;DHT22;23001;45.952;12.676;2022-12-29T19:28:59;9.50;99.90
37086;DHT22;23001;45.952;12.676;2022-12-29T19:31:25;9.40;99.90
37086;DHT22;23001;45.952;12.676;2022-12-29T19:33:52;9.40;99.90
37086;DHT22;23001;45.952;12.676;2022-12-29T19:36:19;9.40;99.90
37086;DHT22;23001;45.952;12.676;2022-12-29T19:38:45;9.40;99.90
37086;DHT22;23001;45.952;12.676;2022-12-29T19:41:11;9.50;99.90
37086;DHT22;23001;45.952;12.676;2022-12-29T19:43:37;9.40;99.90
37086;DHT22;23001;45.952;12.676;2022-12-29T19:46:08;9.40;99.90
37086;DHT22;23001;45.952;12.676;2022-12-29T19:48:35;9.50;99.90
37086;DHT22;23001;45.952;12.676;2022-12-29T19:51:09;9.50;99.90
37086;DHT22;23001;45.952;12.676;2022-12-29T19:53:35;9.50;99.90
37086;DHT22;23001;45.952;12.676;2022-12-29T19:56:03;9.40;99.90
37086;DHT22;23001;45.952;12.676;2022-12-29T19:58:31;9.40;99.90
37086;DHT22;23001;45.952;12.676;2022-12-29T20:01:21;9.40;99.90
37086;DHT22;23001;45.952;12.676;2022-12-29T20:03:47;9.30;99.90
37086;DHT22;23001;45.952;12.676;2022-12-29T20:06:14;9.30;99.90
37086;DHT22;23001;45.952;12.676;2022-12-29T20:08:40;9.40;99.90
37086;DHT22;23001;45.952;12.676;2022-12-29T20:11:11;9.40;99.90
37086;DHT22;23001;45.952;12.676;2022-12-29T20:13:38;9.40;99.90
37086;DHT22;23001;45.952;12.676;2022-12-29T20:16:06;9.40;99.90
37086;DHT22;23001;45.952;12.676;2022-12-29T20:18:33;9.40;99.90
37086;DHT22;23001;45.952;12.676;2022-12-29T20:21:06;9.40;99.90
37086;DHT22;23001;45.952;12.676;2022-12-29T20:23:33;9.40;99.90
37086;DHT22;23001;45.952;12.676;2022-12-29T20:25:59;9.30;99.90
37086;DHT22;23001;45.952;12.676;2022-12-29T20:28:26;9.40;99.90
37086;DHT22;23001;45.952;12.676;2022-12-29T20:31:00;9.30;99.90
37086;DHT22;23001;45.952;12.676;2022-12-29T20:33:29;9.30;99.90
37086;DHT22;23001;45.952;12.676;2022-12-29T20:36:06;9.30;99.90
37086;DHT22;23001;45.952;12.676;2022-12-29T20:38:32;9.30;99.90
37086;DHT22;23001;45.952;12.676;2022-12-29T20:40:57;9.20;99.90
37086;DHT22;23001;45.952;12.676;2022-12-29T20:43:23;9.30;99.90
37086;DHT22;23001;45.952;12.676;2022-12-29T20:45:49;9.30;99.90
37086;DHT22;23001;45.952;12.676;2022-12-29T20:48:14;9.40;99.90
37086;DHT22;23001;45.952;12.676;2022-12-29T20:50:40;9.30;99.90
37086;DHT22;23001;45.952;12.676;2022-12-29T20:53:06;9.30;99.90
37086;DHT22;23001;45.952;12.676;2022-12-29T20:55:32;9.30;99.90
37086;DHT22;23001;45.952;12.676;2022-12-29T20:57:58;9.30;99.90
37086;DHT22;23001;45.952;12.676;2022-12-29T21:00:24;9.30;99.90
37086;DHT22;23001;45.952;12.676;2022-12-29T21:02:50;9.20;99.90
37086;DHT22;23001;45.952;12.676;2022-12-29T21:05:17;9.20;99.90
37086;DHT22;23001;45.952;12.676;2022-12-29T21:07:43;9.20;99.90
37086;DHT22;23001;45.952;12.676;2022-12-29T21:10:09;9.10;99.90
37086;DHT22;23001;45.952;12.676;2022-12-29T21:12:35;9.10;99.90
37086;DHT22;23001;45.952;12.676;2022-12-29T21:15:01;9.10;99.90
37086;DHT22;23001;45.952;12.676;2022-12-29T21:17:26;9.10;99.90
37086;DHT22;23001;45.952;12.676;2022-12-29T21:19:52;9.10;99.90
37086;DHT22;23001;45.952;12.676;2022-12-29T21:22:18;9.10;99.90
37086;DHT22;23001;45.952;12.676;2022-12-29T21:24:44;9.20;99.90
37086;DHT22;23001;45.952;12.676;2022-12-29T21:27:10;9.10;99.90
37086;DHT22;23001;45.952;12.676;2022-12-29T21:29:35;9.20;99.90
37086;DHT22;23001;45.952;12.676;2022-12-29T21:32:01;9.20;99.90
37086;DHT22;23001;45.952;12.676;2022-12-29T21:34:28;9.20;99.90
37086;DHT22;23001;45.952;12.676;2022-12-29T21:36:53;9.10;99.90
37086;DHT22;23001;45.952;12.676;2022-12-29T21:39:19;9.10;99.90
37086;DHT22;23001;45.952;12.676;2022-12-29T21:41:45;9.10;99.90
37086;DHT22;23001;45.952;12.676;2022-12-29T21:44:12;9.10;99.90
37086;DHT22;23001;45.952;12.676;2022-12-29T21:46:56;9.10;99.90
37086;DHT22;23001;45.952;12.676;2022-12-29T21:49:21;9.10;99.90
37086;DHT22;23001;45.952;12.676;2022-12-29T21:51:50;9.10;99.90
37086;DHT22;23001;45.952;12.676;2022-12-29T21:54:26;9.10;99.90
37086;DHT22;23001;45.952;12.676;2022-12-29T21:57:12;9.20;99.90
37086;DHT22;23001;45.952;12.676;2022-12-29T21:59:57;9.10;99.90
37086;DHT22;23001;45.952;12.676;2022-12-29T22:02:41;9.20;99.90
37086;DHT22;23001;45.952;12.676;2022-12-29T22:05:25;9.20;99.90
37086;DHT22;23001;45.952;12.676;2022-12-29T22:08:09;9.20;99.90
37086;DHT22;23001;45.952;12.676;2022-12-29T22:10:53;9.20;99.90
37086;DHT22;23001;45.952;12.676;2022-12-29T22:13:38;9.20;99.90
37086;DHT22;23001;45.952;12.676;2022-12-29T22:16:06;9.20;99.90
37086;DHT22;23001;45.952;12.676;2022-12-29T22:18:32;9.20;99.90
37086;DHT22;23001;45.952;12.676;2022-12-29T22:21:02;9.20;99.90
37086;DHT22;23001;45.952;12.676;2022-12-29T22:23:28;9.20;99.90
37086;DHT22;23001;45.952;12.676;2022-12-29T22:25:54;9.20;99.90
37086;DHT22;23001;45.952;12.676;2022-12-29T22:28:20;9.20;99.90
37086;DHT22;23001;45.952;12.676;2022-12-29T22:30:45;9.20;99.90
37086;DHT22;23001;45.952;12.676;2022-12-29T22:33:11;9.20;99.90
37086;DHT22;23001;45.952;12.676;2022-12-29T22:35:37;9.20;99.90
37086;DHT22;23001;45.952;12.676;2022-12-29T22:38:03;9.20;99.90
37086;DHT22;23001;45.952;12.676;2022-12-29T22:40:28;9.20;99.90
37086;DHT22;23001;45.952;12.676;2022-12-29T22:42:54;9.20;99.90
37086;DHT22;23001;45.952;12.676;2022-12-29T22:45:20;9.20;99.90
37086;DHT22;23001;45.952;12.676;2022-12-29T22:47:46;9.20;99.90
37086;DHT22;23001;45.952;12.676;2022-12-29T22:50:12;9.20;99.90
37086;DHT22;23001;45.952;12.676;2022-12-29T22:52:37;9.20;99.90
37086;DHT22;23001;45.952;12.676;2022-12-29T22:55:03;9.20;99.90
37086;DHT22;23001;45.952;12.676;2022-12-29T22:57:30;9.20;99.90
37086;DHT22;23001;45.952;12.676;2022-12-29T22:59:55;9.10;99.90
37086;DHT22;23001;45.952;12.676;2022-12-29T23:02:21;9.10;99.90
37086;DHT22;23001;45.952;12.676;2022-12-29T23:04:47;9.10;99.90
37086;DHT22;23001;45.952;12.676;2022-12-29T23:07:13;9.10;99.90
37086;DHT22;23001;45.952;12.676;2022-12-29T23:09:38;9.10;99.90
37086;DHT22;23001;45.952;12.676;2022-12-29T23:12:04;9.10;99.90
37086;DHT22;23001;45.952;12.676;2022-12-29T23:14:30;9.10;99.90
37086;DHT22;23001;45.952;12.676;2022-12-29T23:16:56;9.10;99.90
37086;DHT22;23001;45.952;12.676;2022-12-29T23:19:21;9.00;99.90
37086;DHT22;23001;45.952;12.676;2022-12-29T23:21:47;9.10;99.90
37086;DHT22;23001;45.952;12.676;2022-12-29T23:24:13;9.10;99.90
37086;DHT22;23001;45.952;12.676;2022-12-29T23:26:44;9.10;99.90
37086;DHT22;23001;45.952;12.676;2022-12-29T23:29:14;9.10;99.90
37086;DHT22;23001;45.952;12.676;2022-12-29T23:31:40;9.10;99.90
37086;DHT22;23001;45.952;12.676;2022-12-29T23:34:07;9.10;99.90
37086;DHT22;23001;45.952;12.676;2022-12-29T23:36:34;9.10;99.90
37086;DHT22;23001;45.952;12.676;2022-12-29T23:39:00;9.10;99.90
37086;DHT22;23001;45.952;12.676;2022-12-29T23:41:26;9.10;99.90
37086;DHT22;23001;45.952;12.676;2022-12-29T23:43:52;9.10;99.90
37086;DHT22;23001;45.952;12.676;2022-12-29T23:46:21;9.10;99.90